createdAt,value
2022-08-29T00:01:21.987Z,56.83
2022-08-29T00:03:50.745Z,56.81
2022-08-29T00:06:18.582Z,57.27
2022-08-29T00:08:46.665Z,57.01
2022-08-29T00:11:14.327Z,56.79
2022-08-29T00:13:41.924Z,57.38
2022-08-29T00:16:09.672Z,57.23
2022-08-29T00:18:37.299Z,57.09
2022-08-29T00:21:04.990Z,57.59
2022-08-29T00:23:32.598Z,57.32
2022-08-29T00:26:01.113Z,57.50
2022-08-29T00:28:28.819Z,57.68
2022-08-29T00:30:56.616Z,58.24
2022-08-29T00:33:24.353Z,58.28
2022-08-29T00:35:52.045Z,58.25
2022-08-29T00:38:19.793Z,58.22
2022-08-29T00:40:51.328Z,57.97
2022-08-29T00:43:19.726Z,58.15
2022-08-29T00:45:47.384Z,57.93
2022-08-29T00:48:15.352Z,58.26
2022-08-29T00:50:43.164Z,58.07
2022-08-29T00:53:10.837Z,58.12
2022-08-29T00:55:38.861Z,58.61
2022-08-29T00:58:06.617Z,58.33
2022-08-29T01:00:34.342Z,58.58
2022-08-29T01:03:03.022Z,58.82
2022-08-29T01:05:30.697Z,59.02
2022-08-29T01:07:58.417Z,58.79
2022-08-29T01:10:44.786Z,58.79
2022-08-29T01:13:12.610Z,58.58
2022-08-29T01:15:40.218Z,58.79
2022-08-29T01:18:07.999Z,58.24
2022-08-29T01:20:36.160Z,59.21
2022-08-29T01:23:03.766Z,58.48
2022-08-29T01:25:31.550Z,58.91
2022-08-29T01:27:59.151Z,58.85
2022-08-29T01:30:27.193Z,59.02
2022-08-29T01:32:57.667Z,58.57
2022-08-29T01:35:25.350Z,58.87
2022-08-29T01:37:52.991Z,59.00
2022-08-29T01:40:21.683Z,58.39
2022-08-29T01:42:49.351Z,58.69
2022-08-29T01:45:17.019Z,58.90
2022-08-29T01:47:44.686Z,58.59
2022-08-29T01:50:13.088Z,58.14
2022-08-29T01:52:40.779Z,58.75
2022-08-29T01:55:08.747Z,58.69
2022-08-29T01:57:36.477Z,58.51
2022-08-29T02:00:05.940Z,58.63
2022-08-29T02:02:34.345Z,58.36
2022-08-29T02:05:02.064Z,58.61
2022-08-29T02:07:29.801Z,59.16
2022-08-29T02:09:57.886Z,59.32
2022-08-29T02:12:26.463Z,59.61
2022-08-29T02:14:54.086Z,59.68
2022-08-29T02:17:21.875Z,59.82
2022-08-29T02:19:50.052Z,59.56
2022-08-29T02:22:18.535Z,59.84
2022-08-29T02:24:46.134Z,59.89
2022-08-29T02:27:13.747Z,59.93
2022-08-29T02:29:41.995Z,60.19
2022-08-29T02:32:09.639Z,60.64
2022-08-29T02:34:37.276Z,60.35
2022-08-29T02:37:04.981Z,60.91
2022-08-29T02:39:34.135Z,61.21
2022-08-29T02:42:01.725Z,61.59
2022-08-29T02:44:29.522Z,60.79
2022-08-29T02:46:57.223Z,61.02
2022-08-29T02:49:25.524Z,60.87
2022-08-29T02:51:53.274Z,60.66
2022-08-29T02:54:20.932Z,60.96
2022-08-29T02:56:48.576Z,60.80
2022-08-29T02:59:16.877Z,60.40
2022-08-29T03:01:44.518Z,60.64
2022-08-29T03:04:12.236Z,60.32
2022-08-29T03:06:39.819Z,60.24
2022-08-29T03:09:08.038Z,60.13
2022-08-29T03:11:35.714Z,60.50
2022-08-29T03:14:03.335Z,60.28
2022-08-29T03:16:31.484Z,60.19
2022-08-29T03:18:59.289Z,60.74
2022-08-29T03:21:26.897Z,60.64
2022-08-29T03:23:55.531Z,60.86
2022-08-29T03:26:23.807Z,60.69
2022-08-29T03:28:51.536Z,60.46
2022-08-29T03:31:19.365Z,60.55
2022-08-29T03:33:47.155Z,61.17
2022-08-29T03:36:15.053Z,61.33
2022-08-29T03:38:43.775Z,60.82
2022-08-29T03:41:11.601Z,60.86
2022-08-29T03:43:39.276Z,61.03
2022-08-29T03:46:07.338Z,61.35
2022-08-29T03:48:35.453Z,61.25
2022-08-29T03:51:03.190Z,61.35
2022-08-29T03:53:30.872Z,61.35
2022-08-29T03:55:58.596Z,61.88
2022-08-29T03:58:26.481Z,61.62
2022-08-29T04:00:54.174Z,61.33
2022-08-29T04:03:30.817Z,61.36
2022-08-29T04:05:58.647Z,61.64
2022-08-29T04:08:26.319Z,61.51
2022-08-29T04:10:54.218Z,61.33
2022-08-29T04:13:22.098Z,61.19
2022-08-29T04:15:50.411Z,60.86
2022-08-29T04:18:21.683Z,61.30
2022-08-29T04:20:51.914Z,61.50
2022-08-29T04:23:19.572Z,61.36
2022-08-29T04:25:47.310Z,61.58
2022-08-29T04:28:15.200Z,61.32
2022-08-29T04:30:45.488Z,61.48
2022-08-29T04:33:22.870Z,61.66
2022-08-29T04:35:50.730Z,61.51
2022-08-29T04:38:18.882Z,62.15
2022-08-29T04:40:46.680Z,61.75
2022-08-29T04:43:14.482Z,61.84
2022-08-29T04:45:42.142Z,61.41
2022-08-29T04:48:11.037Z,62.08
2022-08-29T04:50:39.176Z,62.25
2022-08-29T04:53:06.839Z,61.91
2022-08-29T04:55:34.435Z,61.94
2022-08-29T04:58:04.016Z,61.60
2022-08-29T05:00:31.854Z,61.93
2022-08-29T05:03:00.321Z,61.91
2022-08-29T05:05:28.063Z,61.90
2022-08-29T05:07:55.776Z,61.83
2022-08-29T05:10:23.797Z,61.91
2022-08-29T05:12:51.678Z,61.59
2022-08-29T05:15:19.287Z,61.48
2022-08-29T05:17:46.968Z,61.06
2022-08-29T05:20:14.998Z,61.19
2022-08-29T05:22:43.316Z,60.49
2022-08-29T05:25:14.436Z,60.61
2022-08-29T05:27:45.202Z,60.91
2022-08-29T05:30:12.803Z,60.32
2022-08-29T05:32:40.656Z,60.66
2022-08-29T05:35:08.325Z,60.55
2022-08-29T05:37:35.966Z,59.85
2022-08-29T05:40:04.181Z,59.85
2022-08-29T05:42:31.868Z,59.70
2022-08-29T05:44:59.542Z,59.76
2022-08-29T05:47:27.472Z,59.62
2022-08-29T05:49:55.071Z,59.18
2022-08-29T05:52:22.838Z,59.37
2022-08-29T05:54:50.848Z,59.02
2022-08-29T05:57:19.476Z,59.06
2022-08-29T05:59:47.346Z,58.87
2022-08-29T06:02:15.061Z,59.18
2022-08-29T06:04:42.829Z,58.62
2022-08-29T06:07:13.628Z,58.41
2022-08-29T06:09:41.343Z,58.55
2022-08-29T06:12:09.011Z,58.21
2022-08-29T06:14:36.795Z,58.88
2022-08-29T06:17:04.705Z,58.54
2022-08-29T06:19:35.112Z,58.61
2022-08-29T06:22:03.575Z,58.51
2022-08-29T06:24:37.459Z,58.79
2022-08-29T06:27:05.131Z,58.45
2022-08-29T06:29:32.809Z,58.62
2022-08-29T06:32:10.860Z,58.46
2022-08-29T06:34:38.574Z,58.12
2022-08-29T06:37:06.247Z,57.80
2022-08-29T06:39:35.487Z,57.43
2022-08-29T06:42:03.087Z,57.64
2022-08-29T06:44:31.570Z,57.45
2022-08-29T06:46:59.309Z,57.63
2022-08-29T06:49:27.845Z,57.44
2022-08-29T06:51:57.982Z,56.96
2022-08-29T06:54:28.220Z,56.88
2022-08-29T06:56:56.099Z,56.64
2022-08-29T06:59:23.848Z,56.27
2022-08-29T07:01:51.617Z,56.00
2022-08-29T07:04:21.018Z,55.62
2022-08-29T07:06:49.139Z,55.00
2022-08-29T07:09:16.839Z,54.86
2022-08-29T07:11:44.611Z,54.42
2022-08-29T07:14:12.290Z,54.05
2022-08-29T07:16:40.313Z,54.71
2022-08-29T07:19:07.913Z,54.26
2022-08-29T07:21:35.818Z,54.14
2022-08-29T07:24:03.726Z,54.34
2022-08-29T07:26:31.350Z,54.46
2022-08-29T07:28:59.057Z,54.67
2022-08-29T07:31:30.849Z,54.08
2022-08-29T07:34:02.398Z,53.73
2022-08-29T07:36:31.139Z,54.04
2022-08-29T07:38:58.819Z,53.68
2022-08-29T07:41:26.621Z,53.25
2022-08-29T07:43:54.307Z,53.06
2022-08-29T07:46:22.328Z,53.52
2022-08-29T07:48:51.299Z,53.04
2022-08-29T07:51:18.910Z,53.15
2022-08-29T07:53:46.918Z,53.21
2022-08-29T07:56:14.584Z,53.26
2022-08-29T07:58:42.814Z,52.44
2022-08-29T08:01:14.827Z,52.60
2022-08-29T08:03:49.078Z,52.06
2022-08-29T08:06:17.634Z,51.97
2022-08-29T08:08:45.536Z,51.88
2022-08-29T08:11:13.211Z,51.67
2022-08-29T08:13:40.902Z,51.46
2022-08-29T08:16:08.911Z,51.04
2022-08-29T08:18:37.328Z,50.41
2022-08-29T08:21:05.037Z,49.99
2022-08-29T08:23:33.489Z,50.59
2022-08-29T08:26:01.206Z,50.34
2022-08-29T08:28:30.672Z,50.01
2022-08-29T08:31:02.297Z,49.91
2022-08-29T08:33:35.011Z,50.12
2022-08-29T08:36:02.893Z,49.84
2022-08-29T08:38:31.741Z,49.35
2022-08-29T08:40:59.916Z,49.44
2022-08-29T08:43:27.797Z,49.04
2022-08-29T08:45:55.965Z,49.29
2022-08-29T08:48:23.576Z,49.30
2022-08-29T08:50:54.600Z,48.91
2022-08-29T08:53:23.081Z,49.05
2022-08-29T08:55:50.988Z,49.48
2022-08-29T08:58:18.618Z,49.11
2022-08-29T09:00:56.403Z,48.93
2022-08-29T09:03:25.292Z,48.70
2022-08-29T09:05:52.892Z,48.12
2022-08-29T09:08:20.481Z,48.50
2022-08-29T09:10:48.860Z,47.71
2022-08-29T09:13:16.697Z,47.70
2022-08-29T09:15:44.661Z,47.85
2022-08-29T09:18:13.679Z,47.76
2022-08-29T09:20:41.819Z,47.59
2022-08-29T09:23:10.903Z,47.66
2022-08-29T09:25:38.589Z,47.66
2022-08-29T09:28:06.275Z,47.26
2022-08-29T09:30:34.585Z,47.10
2022-08-29T09:33:02.930Z,47.03
2022-08-29T09:35:31.666Z,46.96
2022-08-29T09:38:02.232Z,46.80
2022-08-29T09:40:30.234Z,47.01
2022-08-29T09:42:57.966Z,46.35
2022-08-29T09:45:25.806Z,45.62
2022-08-29T09:47:53.407Z,45.58
2022-08-29T09:50:21.400Z,45.51
2022-08-29T09:52:49.112Z,44.82
2022-08-29T09:55:16.781Z,44.48
2022-08-29T09:57:44.553Z,44.19
2022-08-29T10:00:13.274Z,43.71
2022-08-29T10:02:41.235Z,42.80
2022-08-29T10:05:13.417Z,41.38
2022-08-29T10:07:41.478Z,41.50
2022-08-29T10:10:09.341Z,40.87
2022-08-29T10:12:37.098Z,41.04
2022-08-29T10:15:05.219Z,40.27
2022-08-29T10:17:54.513Z,39.64
2022-08-29T10:20:24.425Z,38.87
2022-08-29T10:22:52.098Z,38.08
2022-08-29T10:25:20.958Z,38.79
2022-08-29T10:27:49.409Z,40.33
2022-08-29T10:30:17.105Z,40.02
2022-08-29T10:32:44.792Z,39.49
2022-08-29T10:35:12.980Z,38.56
2022-08-29T10:37:41.032Z,37.22
2022-08-29T10:40:08.681Z,36.73
2022-08-29T10:42:37.295Z,36.12
2022-08-29T10:45:05.262Z,36.02
2022-08-29T10:47:32.893Z,35.17
2022-08-29T10:50:00.675Z,34.87
2022-08-29T10:52:28.362Z,34.93
2022-08-29T10:54:56.407Z,34.20
2022-08-29T10:57:24.088Z,34.65
2022-08-29T10:59:51.917Z,34.66
2022-08-29T11:02:19.587Z,35.23
2022-08-29T11:04:47.368Z,33.87
2022-08-29T11:07:16.373Z,33.77
2022-08-29T11:09:44.375Z,33.41
2022-08-29T11:12:17.678Z,32.81
2022-08-29T11:14:45.791Z,33.73
2022-08-29T11:17:13.493Z,33.03
2022-08-29T11:19:41.950Z,32.87
2022-08-29T11:22:10.038Z,32.68
2022-08-29T11:24:38.135Z,31.64
2022-08-29T11:27:05.835Z,31.15
2022-08-29T11:29:33.522Z,31.08
2022-08-29T11:32:01.216Z,31.55
2022-08-29T11:34:28.903Z,32.38
2022-08-29T11:36:56.607Z,32.41
2022-08-29T11:39:24.522Z,32.57
2022-08-29T11:41:56.404Z,32.65
2022-08-29T11:44:25.902Z,34.40
2022-08-29T11:46:56.860Z,35.06
2022-08-29T11:49:24.854Z,33.30
2022-08-29T11:51:52.996Z,31.87
2022-08-29T11:54:24.676Z,31.31
2022-08-29T11:56:52.796Z,30.54
2022-08-29T11:59:20.683Z,29.63
2022-08-29T12:01:48.439Z,29.96
2022-08-29T12:04:16.192Z,29.32
2022-08-29T12:06:44.226Z,29.27
2022-08-29T12:09:13.793Z,28.31
2022-08-29T12:11:42.143Z,28.86
2022-08-29T12:14:09.931Z,29.70
2022-08-29T12:16:37.671Z,30.79
2022-08-29T12:19:05.614Z,31.66
2022-08-29T12:21:33.326Z,31.07
2022-08-29T12:24:00.997Z,30.15
2022-08-29T12:26:29.130Z,29.37
2022-08-29T12:28:56.840Z,29.56
2022-08-29T12:31:24.692Z,28.79
2022-08-29T12:33:52.469Z,29.38
2022-08-29T12:36:20.954Z,30.79
2022-08-29T12:38:50.341Z,32.90
2022-08-29T12:41:18.519Z,34.68
2022-08-29T12:43:46.897Z,35.96
2022-08-29T12:46:15.315Z,37.72
2022-08-29T12:48:43.072Z,37.71
2022-08-29T12:51:13.984Z,38.09
2022-08-29T12:53:42.248Z,38.21
2022-08-29T12:56:10.209Z,38.18
2022-08-29T12:58:37.891Z,37.23
2022-08-29T13:01:05.845Z,37.61
2022-08-29T13:03:33.604Z,37.61
2022-08-29T13:06:01.394Z,37.79
2022-08-29T13:08:29.302Z,37.70
2022-08-29T13:10:57.295Z,38.20
2022-08-29T13:13:25.000Z,38.27
2022-08-29T13:15:52.668Z,38.60
2022-08-29T13:18:20.540Z,38.89
2022-08-29T13:20:48.552Z,38.47
2022-08-29T13:23:16.685Z,38.74
2022-08-29T13:25:44.485Z,38.71
2022-08-29T13:28:12.326Z,38.31
2022-08-29T13:30:41.997Z,38.72
2022-08-29T13:33:16.677Z,37.71
2022-08-29T13:35:54.920Z,37.34
2022-08-29T13:38:24.793Z,37.16
2022-08-29T13:40:52.860Z,36.92
2022-08-29T13:43:20.569Z,36.60
2022-08-29T13:45:48.224Z,36.03
2022-08-29T13:48:18.525Z,36.11
2022-08-29T13:53:15.401Z,36.25
2022-08-29T13:55:43.672Z,35.94
2022-08-29T13:58:11.425Z,35.82
2022-08-29T14:00:39.532Z,35.29
2022-08-29T14:03:09.621Z,35.44
2022-08-29T14:05:37.344Z,34.75
2022-08-29T14:08:05.117Z,34.49
2022-08-29T14:10:33.125Z,33.65
2022-08-29T14:13:01.105Z,33.22
2022-08-29T14:15:28.868Z,33.43
2022-08-29T14:17:56.653Z,33.84
2022-08-29T14:20:24.681Z,33.05
2022-08-29T14:22:52.380Z,33.09
2022-08-29T14:25:20.058Z,32.54
2022-08-29T14:27:48.550Z,31.81
2022-08-29T14:30:16.288Z,31.93
2022-08-29T14:32:44.110Z,32.05
2022-08-29T14:35:25.958Z,32.43
2022-08-29T14:37:55.579Z,32.10
2022-08-29T14:40:23.375Z,32.38
2022-08-29T14:42:53.368Z,32.09
2022-08-29T14:45:21.193Z,31.98
2022-08-29T14:47:49.164Z,31.85
2022-08-29T14:50:16.837Z,32.04
2022-08-29T14:52:44.663Z,31.27
2022-08-29T14:55:12.344Z,31.18
2022-08-29T14:57:40.343Z,30.71
2022-08-29T15:00:09.502Z,30.78
2022-08-29T15:02:37.388Z,30.69
2022-08-29T15:05:05.033Z,30.96
2022-08-29T15:07:32.909Z,30.99
2022-08-29T15:10:00.909Z,31.23
2022-08-29T15:12:29.234Z,30.71
2022-08-29T15:14:56.890Z,30.39
2022-08-29T15:17:24.744Z,30.89
2022-08-29T15:22:40.512Z,30.82
2022-08-29T15:25:08.509Z,30.59
2022-08-29T15:27:36.172Z,29.87
2022-08-29T15:30:04.494Z,29.15
2022-08-29T15:32:32.211Z,29.62
2022-08-29T15:34:59.915Z,29.09
2022-08-29T15:37:27.673Z,28.59
2022-08-29T15:39:55.911Z,28.38
2022-08-29T15:42:29.118Z,28.54
2022-08-29T15:44:56.910Z,28.45
2022-08-29T15:47:26.381Z,28.14
2022-08-29T15:49:54.158Z,28.45
2022-08-29T15:52:21.885Z,27.73
2022-08-29T15:54:49.864Z,27.60
2022-08-29T15:57:17.616Z,28.36
2022-08-29T16:00:00.465Z,27.54
2022-08-29T16:02:28.250Z,27.82
2022-08-29T16:04:57.306Z,27.65
2022-08-29T16:07:28.782Z,27.75
2022-08-29T16:09:57.371Z,27.94
2022-08-29T16:12:25.152Z,28.26
2022-08-29T16:15:01.225Z,29.49
2022-08-29T16:17:31.582Z,31.00
2022-08-29T16:19:59.634Z,32.63
2022-08-29T16:22:27.926Z,34.23
2022-08-29T16:24:55.559Z,35.09
2022-08-29T16:27:24.629Z,36.18
2022-08-29T16:29:52.569Z,36.79
2022-08-29T16:32:20.323Z,37.38
2022-08-29T16:34:47.942Z,37.74
2022-08-29T16:37:15.859Z,38.32
2022-08-29T16:39:43.898Z,38.25
2022-08-29T16:42:12.372Z,38.92
2022-08-29T16:44:40.165Z,38.51
2022-08-29T16:47:07.908Z,38.58
2022-08-29T16:49:37.695Z,39.19
2022-08-29T16:52:05.506Z,39.73
2022-08-29T16:54:33.264Z,39.33
2022-08-29T16:57:01.033Z,39.84
2022-08-29T16:59:29.920Z,39.92
2022-08-29T17:01:57.775Z,40.16
2022-08-29T17:04:25.544Z,40.36
2022-08-29T17:06:53.259Z,40.42
2022-08-29T17:09:19.984Z,40.09
2022-08-29T17:11:46.482Z,40.46
2022-08-29T17:14:12.959Z,40.72
2022-08-29T17:16:40.714Z,40.14
2022-08-29T17:19:08.871Z,40.18
2022-08-29T17:21:36.627Z,40.14
2022-08-29T17:24:06.835Z,40.71
2022-08-29T17:26:34.726Z,40.27
2022-08-29T17:29:02.535Z,40.82
2022-08-29T17:31:31.075Z,40.60
2022-08-29T17:34:06.882Z,40.35
2022-08-29T17:36:35.212Z,41.14
2022-08-29T17:39:03.272Z,40.96
2022-08-29T17:41:32.174Z,40.97
2022-08-29T17:44:00.647Z,41.31
2022-08-29T17:46:29.610Z,41.29
2022-08-29T17:48:57.594Z,41.32
2022-08-29T17:51:25.260Z,41.19
2022-08-29T17:53:53.346Z,41.36
2022-08-29T17:56:21.108Z,41.70
2022-08-29T17:58:48.906Z,41.75
2022-08-29T18:01:17.114Z,41.63
2022-08-29T18:03:45.258Z,41.52
2022-08-29T18:06:14.405Z,42.30
2022-08-29T18:08:47.787Z,41.84
2022-08-29T18:11:16.071Z,42.29
2022-08-29T18:13:43.801Z,42.45
2022-08-29T18:16:12.034Z,42.67
2022-08-29T18:18:41.357Z,42.53
2022-08-29T18:21:09.091Z,42.76
2022-08-29T18:23:36.868Z,42.84
2022-08-29T18:26:04.889Z,42.72
2022-08-29T18:28:32.589Z,43.22
2022-08-29T18:31:00.336Z,43.56
2022-08-29T18:33:38.792Z,43.37
2022-08-29T18:36:15.788Z,43.56
2022-08-29T18:38:43.530Z,43.50
2022-08-29T18:41:11.661Z,43.34
2022-08-29T18:43:39.442Z,43.44
2022-08-29T18:46:09.601Z,43.62
2022-08-29T18:48:37.594Z,43.91
2022-08-29T18:51:05.396Z,43.77
2022-08-29T18:53:33.164Z,44.01
2022-08-29T18:56:00.870Z,44.62
2022-08-29T18:58:28.689Z,43.98
2022-08-29T19:00:56.817Z,44.35
2022-08-29T19:03:24.689Z,44.74
2022-08-29T19:05:52.604Z,44.83
2022-08-29T19:08:20.410Z,44.67
2022-08-29T19:10:48.491Z,44.71
2022-08-29T19:13:17.846Z,45.00
2022-08-29T19:15:47.503Z,45.04
2022-08-29T19:18:15.326Z,45.18
2022-08-29T19:21:00.731Z,44.97
2022-08-29T19:23:28.471Z,45.04
2022-08-29T19:25:56.555Z,45.64
2022-08-29T19:28:25.448Z,45.56
2022-08-29T19:30:53.402Z,45.66
2022-08-29T19:33:21.370Z,45.58
2022-08-29T19:35:58.428Z,45.74
2022-08-29T19:38:27.855Z,46.02
2022-08-29T19:40:57.389Z,46.07
2022-08-29T19:43:25.466Z,46.08
2022-08-29T19:45:53.420Z,45.91
2022-08-29T19:48:21.239Z,46.46
2022-08-29T19:50:48.944Z,46.60
2022-08-29T19:53:17.102Z,46.08
2022-08-29T19:55:55.195Z,46.41
2022-08-29T19:58:25.026Z,46.48
2022-08-29T20:01:00.040Z,46.50
2022-08-29T20:03:34.328Z,46.31
2022-08-29T20:06:07.563Z,46.16
2022-08-29T20:08:36.192Z,46.27
2022-08-29T20:11:04.004Z,46.72
2022-08-29T20:13:35.756Z,46.91
2022-08-29T20:16:03.796Z,46.70
2022-08-29T20:18:31.639Z,47.09
2022-08-29T20:20:59.469Z,46.99
2022-08-29T20:23:27.682Z,47.40
2022-08-29T20:25:56.899Z,47.53
2022-08-29T20:28:24.666Z,47.39
2022-08-29T20:30:52.445Z,47.26
2022-08-29T20:33:20.262Z,47.82
2022-08-29T20:36:06.603Z,47.66
2022-08-29T20:38:34.628Z,47.66
2022-08-29T20:41:02.621Z,47.83
2022-08-29T20:43:30.326Z,47.75
2022-08-29T20:46:00.033Z,47.53
2022-08-29T20:48:31.157Z,48.06
2022-08-29T20:50:59.339Z,47.52
2022-08-29T20:53:31.750Z,48.37
2022-08-29T20:56:00.649Z,47.99
2022-08-29T20:58:28.999Z,48.13
2022-08-29T21:00:56.835Z,48.32
2022-08-29T21:03:42.258Z,48.21
2022-08-29T21:06:09.996Z,47.80
2022-08-29T21:08:41.818Z,48.00
2022-08-29T21:11:10.362Z,47.99
2022-08-29T21:13:43.528Z,48.38
2022-08-29T21:16:11.488Z,48.22
2022-08-29T21:18:39.463Z,48.54
2022-08-29T21:21:07.272Z,48.55
2022-08-29T21:23:35.381Z,48.68
2022-08-29T21:26:03.399Z,48.54
2022-08-29T21:28:32.504Z,48.91
2022-08-29T21:31:00.292Z,48.36
2022-08-29T21:33:28.072Z,48.64
2022-08-29T21:35:59.904Z,48.45
2022-08-29T21:38:27.593Z,48.69
2022-08-29T21:40:58.820Z,49.02
2022-08-29T21:43:26.730Z,49.06
2022-08-29T21:45:54.485Z,49.14
2022-08-29T21:48:22.217Z,49.39
2022-08-29T21:50:49.917Z,49.04
2022-08-29T21:53:17.869Z,48.97
2022-08-29T21:55:46.983Z,49.02
2022-08-29T21:58:15.075Z,49.33
2022-08-29T22:00:43.164Z,49.34
2022-08-29T22:03:12.472Z,49.52
2022-08-29T22:05:43.662Z,49.50
2022-08-29T22:08:13.885Z,49.67
2022-08-29T22:10:41.805Z,49.50
2022-08-29T22:13:09.513Z,50.05
2022-08-29T22:15:55.116Z,49.41
2022-08-29T22:18:23.658Z,50.06
2022-08-29T22:20:54.941Z,49.88
2022-08-29T22:23:24.694Z,49.95
2022-08-29T22:25:52.736Z,50.15
2022-08-29T22:28:20.484Z,50.28
2022-08-29T22:30:48.828Z,50.54
2022-08-29T22:33:16.959Z,50.43
2022-08-29T22:35:45.983Z,50.37
2022-08-29T22:38:13.735Z,51.05
2022-08-29T22:40:41.537Z,50.58
2022-08-29T22:43:09.458Z,50.44
2022-08-29T22:45:37.355Z,50.76
2022-08-29T22:48:06.452Z,51.03
2022-08-29T22:50:34.137Z,51.19
2022-08-29T22:53:02.381Z,51.29
2022-08-29T22:57:57.702Z,50.93
2022-08-29T23:00:25.313Z,50.61
2022-08-29T23:02:53.089Z,50.76
2022-08-29T23:05:21.085Z,50.98
2022-08-29T23:07:48.835Z,50.63
2022-08-29T23:10:16.857Z,51.00
2022-08-29T23:12:44.559Z,50.37
2022-08-29T23:15:13.480Z,50.10
2022-08-29T23:17:41.216Z,50.41
2022-08-29T23:20:09.400Z,50.21
2022-08-29T23:22:39.357Z,50.09
2022-08-29T23:25:10.940Z,49.67
2022-08-29T23:27:38.648Z,49.93
2022-08-29T23:30:06.268Z,49.87
2022-08-29T23:32:33.932Z,49.66
2022-08-29T23:35:01.881Z,49.94
2022-08-29T23:37:29.592Z,50.48
2022-08-29T23:39:58.260Z,50.39
2022-08-29T23:42:26.130Z,50.46
2022-08-29T23:44:55.162Z,50.36
2022-08-29T23:47:22.757Z,50.81
2022-08-29T23:49:50.531Z,50.89
2022-08-29T23:52:18.143Z,50.49
2022-08-29T23:54:46.081Z,50.45
2022-08-29T23:57:13.684Z,50.34
2022-08-29T23:59:58.711Z,50.45
